BLUE7 KPNS-KLAL
Flight info
| Callsign | BLUE7 |
|---|---|
| Flight time | 1h 29m |
| Altitude | 21000 |
| Route | CEW V198 CTY VPKER |
| Aircraft | SF50/L-VGDW/C |
Departure
| Time | 2026-04-21 22:35 |
|---|---|
| Airport | Pensacola International Airport (KPNS) |
Arrival
| Time | 2026-04-22 00:05 |
|---|---|
| Airport | Lakeland Linder International Airport (KLAL) |
| Time | Latitude | Longitude | Altitude | Speed | Heading |
|---|---|---|---|---|---|
| 2026-04-21 22:33 | 30.47787 | -87.19048 | 108 ft | 4 kts | 308° |
| 2026-04-21 22:33 | 30.47792 | -87.19064 | 108 ft | 0 kts | 350° |
| 2026-04-21 22:34 | 30.47794 | -87.19064 | 108 ft | 0 kts | 16° |
| 2026-04-21 22:34 | 30.47800 | -87.19057 | 108 ft | 11 kts | 88° |
| 2026-04-21 22:34 | 30.47748 | -87.18924 | 107 ft | 12 kts | 182° |
| 2026-04-21 22:35 | 30.47457 | -87.18847 | 99 ft | 78 kts | 166° |
| 2026-04-21 22:35 | 30.46865 | -87.18679 | 383 ft | 90 kts | 167° |
| 2026-04-21 22:35 | 30.46212 | -87.18598 | 753 ft | 105 kts | 188° |
| 2026-04-21 22:35 | 30.45473 | -87.18693 | 1213 ft | 119 kts | 188° |
| 2026-04-21 22:36 | 30.43757 | -87.19460 | 2358 ft | 149 kts | 229° |
| 2026-04-21 22:36 | 30.43342 | -87.20646 | 2822 ft | 176 kts | 261° |
| 2026-04-21 22:36 | 30.43280 | -87.22177 | 3079 ft | 205 kts | 268° |
| 2026-04-21 22:37 | 30.43288 | -87.23882 | 3558 ft | 210 kts | 267° |
| 2026-04-21 22:37 | 30.43534 | -87.25486 | 4328 ft | 199 kts | 301° |
| 2026-04-21 22:37 | 30.44509 | -87.26507 | 4886 ft | 198 kts | 340° |
| 2026-04-21 22:37 | 30.45856 | -87.26601 | 5480 ft | 197 kts | 23° |
| 2026-04-21 22:38 | 30.46907 | -87.25635 | 6166 ft | 193 kts | 50° |
| 2026-04-21 22:38 | 30.47788 | -87.24437 | 6731 ft | 199 kts | 52° |
| 2026-04-21 22:38 | 30.48676 | -87.23167 | 7222 ft | 208 kts | 53° |
| 2026-04-21 22:38 | 30.49554 | -87.21845 | 7893 ft | 206 kts | 54° |
| 2026-04-21 22:39 | 30.50388 | -87.20548 | 8609 ft | 201 kts | 55° |
| 2026-04-21 22:39 | 30.51209 | -87.19247 | 9341 ft | 197 kts | 55° |
| 2026-04-21 22:39 | 30.51987 | -87.18002 | 10050 ft | 192 kts | 55° |
| 2026-04-21 22:39 | 30.52757 | -87.16763 | 10634 ft | 195 kts | 56° |
| 2026-04-21 22:40 | 30.53580 | -87.15430 | 10986 ft | 209 kts | 55° |
| 2026-04-21 22:40 | 30.54442 | -87.14036 | 11466 ft | 214 kts | 56° |
| 2026-04-21 22:40 | 30.55314 | -87.12618 | 11967 ft | 218 kts | 56° |
| 2026-04-21 22:40 | 30.56195 | -87.11187 | 12446 ft | 221 kts | 56° |
| 2026-04-21 22:41 | 30.57084 | -87.09737 | 12925 ft | 224 kts | 56° |
| 2026-04-21 22:41 | 30.58001 | -87.08244 | 13338 ft | 228 kts | 56° |
| 2026-04-21 22:41 | 30.58921 | -87.06740 | 13783 ft | 230 kts | 56° |
| 2026-04-21 22:41 | 30.59850 | -87.05224 | 14202 ft | 232 kts | 55° |
| 2026-04-21 22:42 | 30.60797 | -87.03678 | 14625 ft | 234 kts | 55° |
| 2026-04-21 22:42 | 30.61750 | -87.02122 | 15034 ft | 237 kts | 54° |
| 2026-04-21 22:42 | 30.62710 | -87.00555 | 15428 ft | 240 kts | 54° |
| 2026-04-21 22:42 | 30.63673 | -86.98983 | 15848 ft | 240 kts | 54° |
| 2026-04-21 22:43 | 30.64637 | -86.97407 | 16212 ft | 243 kts | 53° |
| 2026-04-21 22:43 | 30.65629 | -86.95787 | 16580 ft | 245 kts | 53° |
| 2026-04-21 22:43 | 30.66607 | -86.94190 | 16966 ft | 246 kts | 53° |
| 2026-04-21 22:43 | 30.67602 | -86.92562 | 17296 ft | 249 kts | 53° |
| 2026-04-21 22:44 | 30.68616 | -86.90903 | 17646 ft | 251 kts | 53° |
| 2026-04-21 22:44 | 30.69626 | -86.89252 | 17989 ft | 253 kts | 52° |
| 2026-04-21 22:44 | 30.70656 | -86.87568 | 18328 ft | 255 kts | 52° |
| 2026-04-21 22:44 | 30.71676 | -86.85894 | 18665 ft | 256 kts | 52° |
| 2026-04-21 22:45 | 30.72715 | -86.84193 | 18985 ft | 258 kts | 52° |
| 2026-04-21 22:45 | 30.73749 | -86.82497 | 19293 ft | 260 kts | 52° |
| 2026-04-21 22:45 | 30.74801 | -86.80773 | 19596 ft | 262 kts | 52° |
| 2026-04-21 22:45 | 30.75859 | -86.79037 | 19889 ft | 264 kts | 52° |
| 2026-04-21 22:46 | 30.76908 | -86.77315 | 20185 ft | 265 kts | 52° |
| 2026-04-21 22:46 | 30.77995 | -86.75531 | 20448 ft | 268 kts | 52° |
| 2026-04-21 22:46 | 30.79060 | -86.73780 | 20746 ft | 269 kts | 52° |
| 2026-04-21 22:46 | 30.80149 | -86.71986 | 21005 ft | 271 kts | 52° |
| 2026-04-21 22:47 | 30.81235 | -86.70200 | 21248 ft | 274 kts | 52° |
| 2026-04-21 22:47 | 30.82298 | -86.68321 | 21510 ft | 277 kts | 65° |
| 2026-04-21 22:47 | 30.82551 | -86.66110 | 21768 ft | 279 kts | 91° |
| 2026-04-21 22:47 | 30.82529 | -86.63866 | 21999 ft | 282 kts | 91° |
| 2026-04-21 22:48 | 30.82489 | -86.61593 | 22230 ft | 283 kts | 91° |
| 2026-04-21 22:48 | 30.82446 | -86.59265 | 22448 ft | 285 kts | 91° |
| 2026-04-21 22:48 | 30.82402 | -86.56951 | 22672 ft | 287 kts | 91° |
| 2026-04-21 22:48 | 30.82354 | -86.54642 | 22925 ft | 287 kts | 91° |
| 2026-04-21 22:49 | 30.82306 | -86.52306 | 23134 ft | 290 kts | 91° |
| 2026-04-21 22:49 | 30.82256 | -86.49936 | 23240 ft | 296 kts | 91° |
| 2026-04-21 22:49 | 30.82206 | -86.47519 | 23255 ft | 304 kts | 91° |
| 2026-04-21 22:49 | 30.82152 | -86.45042 | 23253 ft | 312 kts | 91° |
| 2026-04-21 22:50 | 30.82098 | -86.42515 | 23255 ft | 317 kts | 91° |
| 2026-04-21 22:50 | 30.82043 | -86.39935 | 23256 ft | 322 kts | 91° |
| 2026-04-21 22:50 | 30.81986 | -86.37298 | 23250 ft | 326 kts | 91° |
| 2026-04-21 22:50 | 30.81926 | -86.34631 | 23253 ft | 329 kts | 92° |
| 2026-04-21 22:51 | 30.81868 | -86.31981 | 23249 ft | 331 kts | 92° |
| 2026-04-21 22:51 | 30.81807 | -86.29279 | 23242 ft | 332 kts | 92° |
| 2026-04-21 22:51 | 30.81743 | -86.26582 | 23242 ft | 333 kts | 91° |
| 2026-04-21 22:51 | 30.81687 | -86.23905 | 23237 ft | 334 kts | 92° |
| 2026-04-21 22:52 | 30.81625 | -86.21215 | 23234 ft | 335 kts | 91° |
| 2026-04-21 22:52 | 30.81563 | -86.18498 | 23234 ft | 335 kts | 92° |
| 2026-04-21 22:52 | 30.81497 | -86.15763 | 23233 ft | 336 kts | 91° |
| 2026-04-21 22:52 | 30.81433 | -86.13058 | 23237 ft | 336 kts | 92° |
| 2026-04-21 22:53 | 30.81367 | -86.10360 | 23235 ft | 336 kts | 91° |
| 2026-04-21 22:53 | 30.81303 | -86.07631 | 23236 ft | 337 kts | 91° |
| 2026-04-21 22:53 | 30.81235 | -86.04890 | 23235 ft | 337 kts | 92° |
| 2026-04-21 22:53 | 30.81167 | -86.02164 | 23235 ft | 337 kts | 91° |
| 2026-04-21 22:54 | 30.81099 | -85.99479 | 23236 ft | 337 kts | 91° |
| 2026-04-21 22:54 | 30.81030 | -85.96742 | 23230 ft | 337 kts | 91° |
| 2026-04-21 22:54 | 30.80960 | -85.93988 | 23230 ft | 337 kts | 91° |
| 2026-04-21 22:54 | 30.80892 | -85.91293 | 23225 ft | 338 kts | 91° |
| 2026-04-21 22:55 | 30.80820 | -85.88560 | 23224 ft | 337 kts | 91° |
| 2026-04-21 22:55 | 30.80750 | -85.85816 | 23216 ft | 336 kts | 91° |
| 2026-04-21 22:55 | 30.80679 | -85.83147 | 23222 ft | 335 kts | 91° |
| 2026-04-21 22:55 | 30.80607 | -85.80427 | 23222 ft | 334 kts | 91° |
| 2026-04-21 22:56 | 30.80536 | -85.77715 | 23223 ft | 334 kts | 91° |
| 2026-04-21 22:56 | 30.80463 | -85.75021 | 23223 ft | 333 kts | 91° |
| 2026-04-21 22:56 | 30.80391 | -85.72351 | 23224 ft | 333 kts | 91° |
| 2026-04-21 22:56 | 30.80317 | -85.69640 | 23226 ft | 333 kts | 91° |
| 2026-04-21 22:57 | 30.80243 | -85.66979 | 23226 ft | 333 kts | 91° |
| 2026-04-21 22:57 | 30.80170 | -85.64280 | 23225 ft | 333 kts | 91° |
| 2026-04-21 22:57 | 30.80094 | -85.61595 | 23228 ft | 333 kts | 91° |
| 2026-04-21 22:57 | 30.80020 | -85.58908 | 23229 ft | 333 kts | 91° |
| 2026-04-21 22:58 | 30.79942 | -85.56206 | 23226 ft | 334 kts | 91° |
| 2026-04-21 22:58 | 30.79865 | -85.53516 | 23228 ft | 334 kts | 91° |
| 2026-04-21 22:58 | 30.79787 | -85.50837 | 23229 ft | 334 kts | 91° |
| 2026-04-21 22:58 | 30.79709 | -85.48111 | 23229 ft | 334 kts | 91° |
| 2026-04-21 22:59 | 30.79632 | -85.45444 | 23231 ft | 334 kts | 91° |
| 2026-04-21 22:59 | 30.79553 | -85.42737 | 23231 ft | 334 kts | 91° |
| 2026-04-21 22:59 | 30.79472 | -85.40039 | 23229 ft | 334 kts | 91° |
| 2026-04-21 22:59 | 30.79393 | -85.37351 | 23231 ft | 334 kts | 91° |
| 2026-04-21 23:00 | 30.79312 | -85.34666 | 23234 ft | 334 kts | 91° |
| 2026-04-21 23:00 | 30.79231 | -85.31962 | 23224 ft | 334 kts | 91° |
| 2026-04-21 23:00 | 30.79148 | -85.29264 | 23221 ft | 333 kts | 91° |
| 2026-04-21 23:00 | 30.79066 | -85.26578 | 23224 ft | 334 kts | 91° |
| 2026-04-21 23:01 | 30.78983 | -85.23895 | 23461 ft | 326 kts | 91° |
| 2026-04-21 23:01 | 30.78902 | -85.21371 | 24222 ft | 303 kts | 91° |
| 2026-04-21 23:01 | 30.78827 | -85.18997 | 24956 ft | 283 kts | 90° |
| 2026-04-21 23:01 | 30.78757 | -85.16742 | 25182 ft | 286 kts | 90° |
| 2026-04-21 23:02 | 30.78686 | -85.14379 | 25223 ft | 295 kts | 90° |
| 2026-04-21 23:02 | 30.78453 | -85.11984 | 25193 ft | 305 kts | 108° |
| 2026-04-21 23:02 | 30.77762 | -85.09624 | 25227 ft | 311 kts | 109° |
| 2026-04-21 23:02 | 30.77047 | -85.07252 | 25225 ft | 318 kts | 110° |
| 2026-04-21 23:03 | 30.76307 | -85.04809 | 25223 ft | 323 kts | 110° |
| 2026-04-21 23:03 | 30.75553 | -85.02333 | 25217 ft | 327 kts | 110° |
| 2026-04-21 23:03 | 30.74791 | -84.99824 | 25220 ft | 330 kts | 109° |
| 2026-04-21 23:03 | 30.74030 | -84.97318 | 25220 ft | 332 kts | 109° |
| 2026-04-21 23:04 | 30.73261 | -84.94788 | 25219 ft | 334 kts | 110° |
| 2026-04-21 23:04 | 30.72475 | -84.92217 | 25218 ft | 336 kts | 109° |
| 2026-04-21 23:04 | 30.71693 | -84.89654 | 25217 ft | 337 kts | 109° |
| 2026-04-21 23:04 | 30.70915 | -84.87097 | 25218 ft | 338 kts | 109° |
| 2026-04-21 23:05 | 30.70130 | -84.84528 | 25223 ft | 339 kts | 109° |
| 2026-04-21 23:05 | 30.69345 | -84.81963 | 25217 ft | 339 kts | 109° |
| 2026-04-21 23:05 | 30.68549 | -84.79351 | 25223 ft | 340 kts | 109° |
| 2026-04-21 23:05 | 30.67767 | -84.76800 | 25223 ft | 340 kts | 109° |
| 2026-04-21 23:06 | 30.66972 | -84.74206 | 25222 ft | 340 kts | 109° |
| 2026-04-21 23:06 | 30.66175 | -84.71602 | 25216 ft | 341 kts | 109° |
| 2026-04-21 23:06 | 30.65377 | -84.69003 | 25223 ft | 341 kts | 109° |
| 2026-04-21 23:06 | 30.64584 | -84.66426 | 25219 ft | 341 kts | 109° |
| 2026-04-21 23:07 | 30.63796 | -84.63856 | 25222 ft | 341 kts | 109° |
| 2026-04-21 23:07 | 30.62995 | -84.61257 | 25223 ft | 342 kts | 109° |
| 2026-04-21 23:07 | 30.62198 | -84.58667 | 25221 ft | 342 kts | 109° |
| 2026-04-21 23:07 | 30.61398 | -84.56072 | 25220 ft | 342 kts | 109° |
| 2026-04-21 23:08 | 30.60593 | -84.53464 | 25222 ft | 342 kts | 109° |
| 2026-04-21 23:08 | 30.59788 | -84.50849 | 25221 ft | 342 kts | 109° |
| 2026-04-21 23:08 | 30.58995 | -84.48284 | 25227 ft | 342 kts | 109° |
| 2026-04-21 23:08 | 30.58189 | -84.45673 | 25223 ft | 343 kts | 109° |
| 2026-04-21 23:09 | 30.57389 | -84.43087 | 25223 ft | 343 kts | 109° |
| 2026-04-21 23:09 | 30.56581 | -84.40483 | 25226 ft | 343 kts | 109° |
| 2026-04-21 23:09 | 30.55742 | -84.37865 | 25211 ft | 343 kts | 115° |
| 2026-04-21 23:09 | 30.54371 | -84.35636 | 25227 ft | 340 kts | 130° |
| 2026-04-21 23:10 | 30.52864 | -84.33508 | 25221 ft | 340 kts | 131° |
| 2026-04-21 23:10 | 30.51369 | -84.31410 | 25220 ft | 340 kts | 131° |
| 2026-04-21 23:10 | 30.49874 | -84.29308 | 25220 ft | 340 kts | 131° |
| 2026-04-21 23:10 | 30.48373 | -84.27200 | 25222 ft | 339 kts | 131° |
| 2026-04-21 23:11 | 30.46872 | -84.25093 | 25224 ft | 339 kts | 131° |
| 2026-04-21 23:11 | 30.45345 | -84.22955 | 25227 ft | 339 kts | 131° |
| 2026-04-21 23:11 | 30.43858 | -84.20866 | 25221 ft | 339 kts | 131° |
| 2026-04-21 23:11 | 30.42346 | -84.18747 | 25221 ft | 339 kts | 131° |
| 2026-04-21 23:12 | 30.40846 | -84.16646 | 25218 ft | 339 kts | 131° |
| 2026-04-21 23:12 | 30.39335 | -84.14533 | 25220 ft | 339 kts | 131° |
| 2026-04-21 23:12 | 30.37825 | -84.12420 | 25218 ft | 339 kts | 131° |
| 2026-04-21 23:12 | 30.36332 | -84.10329 | 25217 ft | 340 kts | 131° |
| 2026-04-21 23:13 | 30.34819 | -84.08215 | 25219 ft | 340 kts | 131° |
| 2026-04-21 23:13 | 30.33316 | -84.06116 | 25219 ft | 340 kts | 131° |
| 2026-04-21 23:13 | 30.31809 | -84.04015 | 25218 ft | 340 kts | 131° |
| 2026-04-21 23:13 | 30.30289 | -84.01893 | 25216 ft | 341 kts | 131° |
| 2026-04-21 23:14 | 30.28797 | -83.99809 | 25221 ft | 341 kts | 131° |
| 2026-04-21 23:14 | 30.27270 | -83.97683 | 25214 ft | 341 kts | 131° |
| 2026-04-21 23:14 | 30.25753 | -83.95570 | 25213 ft | 341 kts | 131° |
| 2026-04-21 23:14 | 30.24250 | -83.93475 | 25211 ft | 341 kts | 131° |
| 2026-04-21 23:15 | 30.22734 | -83.91366 | 25211 ft | 341 kts | 131° |
| 2026-04-21 23:15 | 30.21211 | -83.89248 | 25215 ft | 341 kts | 131° |
| 2026-04-21 23:15 | 30.19697 | -83.87141 | 25214 ft | 341 kts | 131° |
| 2026-04-21 23:15 | 30.18175 | -83.85028 | 25212 ft | 341 kts | 131° |
| 2026-04-21 23:16 | 30.16668 | -83.82935 | 25211 ft | 341 kts | 131° |
| 2026-04-21 23:16 | 30.15141 | -83.80814 | 25217 ft | 341 kts | 131° |
| 2026-04-21 23:16 | 30.13618 | -83.78699 | 25214 ft | 341 kts | 130° |
| 2026-04-21 23:16 | 30.12102 | -83.76600 | 25212 ft | 341 kts | 131° |
| 2026-04-21 23:17 | 30.10588 | -83.74500 | 25214 ft | 341 kts | 131° |
| 2026-04-21 23:17 | 30.09060 | -83.72382 | 25219 ft | 341 kts | 131° |
| 2026-04-21 23:17 | 30.07537 | -83.70277 | 25217 ft | 341 kts | 130° |
| 2026-04-21 23:17 | 30.06029 | -83.68189 | 25220 ft | 341 kts | 131° |
| 2026-04-21 23:18 | 30.04499 | -83.66073 | 25217 ft | 341 kts | 131° |
| 2026-04-21 23:18 | 30.02971 | -83.63959 | 25225 ft | 341 kts | 131° |
| 2026-04-21 23:18 | 30.01463 | -83.61879 | 25221 ft | 342 kts | 131° |
| 2026-04-21 23:18 | 29.99937 | -83.59769 | 25229 ft | 341 kts | 131° |
| 2026-04-21 23:19 | 29.98412 | -83.57667 | 25228 ft | 342 kts | 131° |
| 2026-04-21 23:19 | 29.96877 | -83.55548 | 25227 ft | 342 kts | 131° |
| 2026-04-21 23:19 | 29.95347 | -83.53441 | 25224 ft | 342 kts | 130° |
| 2026-04-21 23:19 | 29.93829 | -83.51347 | 25226 ft | 342 kts | 131° |
| 2026-04-21 23:20 | 29.92314 | -83.49262 | 25224 ft | 342 kts | 131° |
| 2026-04-21 23:20 | 29.90765 | -83.47128 | 25228 ft | 342 kts | 131° |
| 2026-04-21 23:20 | 29.89237 | -83.45027 | 25220 ft | 342 kts | 131° |
| 2026-04-21 23:20 | 29.87711 | -83.42928 | 25216 ft | 342 kts | 131° |
| 2026-04-21 23:21 | 29.86176 | -83.40822 | 25210 ft | 342 kts | 131° |
| 2026-04-21 23:21 | 29.84634 | -83.38701 | 25206 ft | 342 kts | 131° |
| 2026-04-21 23:21 | 29.83106 | -83.36606 | 25202 ft | 342 kts | 131° |
| 2026-04-21 23:21 | 29.81578 | -83.34505 | 25196 ft | 342 kts | 131° |
| 2026-04-21 23:22 | 29.80052 | -83.32413 | 25192 ft | 342 kts | 131° |
| 2026-04-21 23:22 | 29.78504 | -83.30291 | 25187 ft | 342 kts | 131° |
| 2026-04-21 23:22 | 29.76992 | -83.28220 | 25189 ft | 341 kts | 131° |
| 2026-04-21 23:22 | 29.75455 | -83.26115 | 25187 ft | 341 kts | 131° |
| 2026-04-21 23:23 | 29.73931 | -83.24032 | 25188 ft | 340 kts | 131° |
| 2026-04-21 23:23 | 29.72406 | -83.21946 | 25191 ft | 340 kts | 131° |
| 2026-04-21 23:23 | 29.70888 | -83.19869 | 25194 ft | 339 kts | 131° |
| 2026-04-21 23:23 | 29.69372 | -83.17796 | 25192 ft | 336 kts | 131° |
| 2026-04-21 23:24 | 29.67881 | -83.15760 | 25191 ft | 334 kts | 131° |
| 2026-04-21 23:24 | 29.66379 | -83.13713 | 25193 ft | 332 kts | 131° |
| 2026-04-21 23:24 | 29.64889 | -83.11678 | 25197 ft | 331 kts | 131° |
| 2026-04-21 23:24 | 29.63413 | -83.09666 | 25200 ft | 330 kts | 131° |
| 2026-04-21 23:25 | 29.61922 | -83.07634 | 25198 ft | 329 kts | 131° |
| 2026-04-21 23:25 | 29.60452 | -83.05632 | 25199 ft | 329 kts | 131° |
| 2026-04-21 23:25 | 29.58748 | -83.03904 | 25210 ft | 324 kts | 144° |
| 2026-04-21 23:25 | 29.56939 | -83.02326 | 25194 ft | 324 kts | 146° |
| 2026-04-21 23:26 | 29.55136 | -83.00770 | 25200 ft | 324 kts | 146° |
| 2026-04-21 23:26 | 29.53341 | -82.99219 | 25202 ft | 322 kts | 146° |
| 2026-04-21 23:26 | 29.51562 | -82.97684 | 25200 ft | 319 kts | 146° |
| 2026-04-21 23:26 | 29.50011 | -82.96346 | 25197 ft | 317 kts | 146° |
| 2026-04-21 23:27 | 29.49870 | -82.96224 | 25196 ft | 317 kts | 146° |
| 2026-04-21 23:27 | 29.48116 | -82.94710 | 25208 ft | 315 kts | 147° |
| 2026-04-21 23:27 | 29.47942 | -82.94561 | 25208 ft | 315 kts | 147° |
| 2026-04-21 23:27 | 29.46329 | -82.93175 | 25212 ft | 318 kts | 147° |
| 2026-04-21 23:28 | 29.44572 | -82.91666 | 25214 ft | 321 kts | 146° |
| 2026-04-21 23:28 | 29.42762 | -82.90109 | 25211 ft | 324 kts | 146° |
| 2026-04-21 23:28 | 29.40959 | -82.88563 | 25210 ft | 326 kts | 146° |
| 2026-04-21 23:28 | 29.39134 | -82.86995 | 25209 ft | 328 kts | 146° |
| 2026-04-21 23:29 | 29.37296 | -82.85414 | 25203 ft | 330 kts | 146° |
| 2026-04-21 23:29 | 29.35464 | -82.83843 | 25201 ft | 332 kts | 146° |
| 2026-04-21 23:29 | 29.33599 | -82.82240 | 25203 ft | 333 kts | 146° |
| 2026-04-21 23:29 | 29.31753 | -82.80656 | 25201 ft | 334 kts | 146° |
| 2026-04-21 23:30 | 29.29879 | -82.79049 | 25204 ft | 335 kts | 146° |
| 2026-04-21 23:30 | 29.28002 | -82.77440 | 25202 ft | 335 kts | 146° |
| 2026-04-21 23:30 | 29.26144 | -82.75850 | 25201 ft | 336 kts | 146° |
| 2026-04-21 23:30 | 29.24271 | -82.74244 | 25205 ft | 336 kts | 146° |
| 2026-04-21 23:31 | 29.22393 | -82.72638 | 25212 ft | 336 kts | 146° |
| 2026-04-21 23:31 | 29.20514 | -82.71033 | 25209 ft | 336 kts | 145° |
| 2026-04-21 23:31 | 29.18650 | -82.69438 | 25210 ft | 337 kts | 145° |
| 2026-04-21 23:31 | 29.16750 | -82.67814 | 25218 ft | 337 kts | 145° |
| 2026-04-21 23:32 | 29.14895 | -82.66226 | 25217 ft | 337 kts | 146° |
| 2026-04-21 23:32 | 29.12994 | -82.64606 | 25217 ft | 337 kts | 146° |
| 2026-04-21 23:32 | 29.11104 | -82.62994 | 25226 ft | 337 kts | 145° |
| 2026-04-21 23:32 | 29.09231 | -82.61397 | 25228 ft | 338 kts | 145° |
| 2026-04-21 23:33 | 29.07336 | -82.59780 | 25226 ft | 338 kts | 146° |
| 2026-04-21 23:33 | 29.05467 | -82.58187 | 25228 ft | 338 kts | 145° |
| 2026-04-21 23:33 | 29.03551 | -82.56553 | 25229 ft | 338 kts | 146° |
| 2026-04-21 23:33 | 29.01661 | -82.54945 | 25231 ft | 338 kts | 146° |
| 2026-04-21 23:34 | 28.99778 | -82.53344 | 25233 ft | 338 kts | 146° |
| 2026-04-21 23:34 | 28.97887 | -82.51733 | 25233 ft | 338 kts | 146° |
| 2026-04-21 23:34 | 28.95988 | -82.50121 | 25233 ft | 338 kts | 146° |
| 2026-04-21 23:34 | 28.94111 | -82.48525 | 25238 ft | 339 kts | 146° |
| 2026-04-21 23:35 | 28.92216 | -82.46917 | 25242 ft | 339 kts | 145° |
| 2026-04-21 23:35 | 28.90311 | -82.45300 | 25242 ft | 339 kts | 146° |
| 2026-04-21 23:35 | 28.88412 | -82.43689 | 25236 ft | 339 kts | 146° |
| 2026-04-21 23:35 | 28.86518 | -82.42081 | 25236 ft | 339 kts | 146° |
| 2026-04-21 23:36 | 28.84620 | -82.40471 | 25237 ft | 339 kts | 146° |
| 2026-04-21 23:36 | 28.82737 | -82.38877 | 25235 ft | 338 kts | 146° |
| 2026-04-21 23:36 | 28.80842 | -82.37271 | 25237 ft | 338 kts | 146° |
| 2026-04-21 23:36 | 28.78941 | -82.35661 | 25240 ft | 338 kts | 146° |
| 2026-04-21 23:37 | 28.77029 | -82.34042 | 25009 ft | 345 kts | 146° |
| 2026-04-21 23:37 | 28.75087 | -82.32401 | 24639 ft | 354 kts | 146° |
| 2026-04-21 23:37 | 28.73073 | -82.30699 | 24162 ft | 362 kts | 146° |
| 2026-04-21 23:37 | 28.71047 | -82.28984 | 23539 ft | 365 kts | 146° |
| 2026-04-21 23:38 | 28.69012 | -82.27266 | 22904 ft | 367 kts | 146° |
| 2026-04-21 23:38 | 28.66947 | -82.25524 | 22303 ft | 368 kts | 146° |
| 2026-04-21 23:38 | 28.64889 | -82.23792 | 21733 ft | 367 kts | 145° |
| 2026-04-21 23:38 | 28.62858 | -82.22077 | 21003 ft | 370 kts | 145° |
| 2026-04-21 23:39 | 28.60831 | -82.20370 | 20300 ft | 351 kts | 144° |
| 2026-04-21 23:39 | 28.58912 | -82.18755 | 19542 ft | 329 kts | 144° |
| 2026-04-21 23:39 | 28.57137 | -82.17261 | 18817 ft | 313 kts | 143° |
| 2026-04-21 23:39 | 28.55409 | -82.15807 | 18091 ft | 301 kts | 143° |
| 2026-04-21 23:40 | 28.53761 | -82.14420 | 17355 ft | 292 kts | 142° |
| 2026-04-21 23:40 | 28.52154 | -82.13067 | 16626 ft | 284 kts | 142° |
| 2026-04-21 23:40 | 28.50606 | -82.11763 | 15891 ft | 278 kts | 142° |
| 2026-04-21 23:40 | 28.49050 | -82.10456 | 15144 ft | 273 kts | 142° |
| 2026-04-21 23:41 | 28.47553 | -82.09199 | 14404 ft | 268 kts | 141° |
| 2026-04-21 23:41 | 28.46073 | -82.07954 | 13679 ft | 264 kts | 141° |
| 2026-04-21 23:41 | 28.44609 | -82.06723 | 12945 ft | 260 kts | 141° |
| 2026-04-21 23:41 | 28.43174 | -82.05518 | 12235 ft | 256 kts | 141° |
| 2026-04-21 23:42 | 28.41773 | -82.04342 | 11517 ft | 253 kts | 141° |
| 2026-04-21 23:42 | 28.40368 | -82.03163 | 10792 ft | 250 kts | 141° |
| 2026-04-21 23:42 | 28.38979 | -82.01999 | 10066 ft | 248 kts | 141° |
| 2026-04-21 23:42 | 28.37596 | -82.00839 | 9323 ft | 245 kts | 140° |
| 2026-04-21 23:43 | 28.36259 | -81.99707 | 8710 ft | 238 kts | 141° |
| 2026-04-21 23:43 | 28.34928 | -81.98605 | 8200 ft | 230 kts | 140° |
| 2026-04-21 23:43 | 28.33662 | -81.97549 | 7691 ft | 223 kts | 144° |
| 2026-04-21 23:43 | 28.32440 | -81.96521 | 7169 ft | 219 kts | 140° |
| 2026-04-21 23:44 | 28.31221 | -81.95503 | 6674 ft | 216 kts | 139° |
| 2026-04-21 23:44 | 28.30016 | -81.94493 | 6215 ft | 214 kts | 139° |
| 2026-04-21 23:44 | 28.28835 | -81.93507 | 5734 ft | 211 kts | 139° |
| 2026-04-21 23:44 | 28.27651 | -81.92516 | 5268 ft | 213 kts | 139° |
| 2026-04-21 23:45 | 28.26222 | -81.91975 | 4743 ft | 230 kts | 176° |
| 2026-04-21 23:45 | 28.23008 | -81.92073 | 3768 ft | 231 kts | 176° |
| 2026-04-21 23:45 | 28.21413 | -81.92123 | 3283 ft | 225 kts | 176° |
| 2026-04-21 23:46 | 28.19871 | -81.92169 | 2791 ft | 216 kts | 175° |
| 2026-04-21 23:46 | 28.18398 | -81.92196 | 2351 ft | 209 kts | 168° |
| 2026-04-21 23:46 | 28.17116 | -81.91380 | 2532 ft | 219 kts | 117° |
| 2026-04-21 23:46 | 28.16790 | -81.89671 | 2854 ft | 229 kts | 91° |
| 2026-04-21 23:47 | 28.16720 | -81.87780 | 2613 ft | 251 kts | 90° |
| 2026-04-21 23:47 | 28.16903 | -81.85781 | 2240 ft | 254 kts | 79° |
| 2026-04-21 23:47 | 28.17177 | -81.83828 | 2036 ft | 247 kts | 81° |
| 2026-04-21 23:47 | 28.17434 | -81.81962 | 2004 ft | 236 kts | 81° |
| 2026-04-21 23:48 | 28.17679 | -81.80165 | 2001 ft | 228 kts | 81° |
| 2026-04-21 23:48 | 28.17926 | -81.78391 | 2003 ft | 223 kts | 81° |
| 2026-04-21 23:48 | 28.18166 | -81.76682 | 2003 ft | 220 kts | 81° |
| 2026-04-21 23:48 | 28.18409 | -81.74985 | 2009 ft | 218 kts | 77° |
| 2026-04-21 23:49 | 28.19353 | -81.73656 | 2035 ft | 227 kts | 31° |
| 2026-04-21 23:49 | 28.20881 | -81.73099 | 2015 ft | 231 kts | 21° |
| 2026-04-21 23:49 | 28.22416 | -81.72583 | 2008 ft | 231 kts | 21° |
| 2026-04-21 23:49 | 28.24026 | -81.72340 | 2014 ft | 242 kts | 351° |
| 2026-04-21 23:50 | 28.25415 | -81.73406 | 2026 ft | 251 kts | 309° |
| 2026-04-21 23:50 | 28.25982 | -81.75270 | 1961 ft | 255 kts | 279° |
| 2026-04-21 23:50 | 28.26178 | -81.77303 | 1761 ft | 258 kts | 274° |
| 2026-04-21 23:50 | 28.26303 | -81.79288 | 1707 ft | 242 kts | 273° |
| 2026-04-21 23:51 | 28.26404 | -81.81127 | 1693 ft | 229 kts | 273° |
| 2026-04-21 23:51 | 28.26503 | -81.82912 | 1698 ft | 220 kts | 273° |
| 2026-04-21 23:51 | 28.26595 | -81.84629 | 1700 ft | 217 kts | 273° |
| 2026-04-21 23:51 | 28.26685 | -81.86324 | 1697 ft | 213 kts | 272° |
| 2026-04-21 23:52 | 28.26776 | -81.87994 | 1697 ft | 210 kts | 273° |
| 2026-04-21 23:52 | 28.26862 | -81.89587 | 1692 ft | 199 kts | 274° |
| 2026-04-21 23:52 | 28.26563 | -81.91050 | 1705 ft | 183 kts | 228° |
| 2026-04-21 23:52 | 28.25558 | -81.91814 | 1721 ft | 177 kts | 183° |
| 2026-04-21 23:53 | 28.24281 | -81.91970 | 1716 ft | 191 kts | 175° |
| 2026-04-21 23:53 | 28.22892 | -81.92049 | 1706 ft | 202 kts | 175° |
| 2026-04-21 23:53 | 28.21483 | -81.92109 | 1696 ft | 201 kts | 174° |
| 2026-04-21 23:53 | 28.20094 | -81.92155 | 1693 ft | 201 kts | 174° |
| 2026-04-21 23:54 | 28.18689 | -81.92197 | 1689 ft | 199 kts | 173° |
| 2026-04-21 23:54 | 28.17309 | -81.92238 | 1695 ft | 199 kts | 173° |
| 2026-04-21 23:54 | 28.15901 | -81.92275 | 1701 ft | 202 kts | 173° |
| 2026-04-21 23:54 | 28.14494 | -81.92315 | 1706 ft | 200 kts | 173° |
| 2026-04-21 23:55 | 28.13100 | -81.92355 | 1704 ft | 199 kts | 174° |
| 2026-04-21 23:55 | 28.11731 | -81.92395 | 1703 ft | 197 kts | 174° |
| 2026-04-21 23:55 | 28.10358 | -81.92434 | 1705 ft | 190 kts | 173° |
| 2026-04-21 23:55 | 28.09105 | -81.92477 | 1818 ft | 165 kts | 172° |
| 2026-04-21 23:56 | 28.07928 | -81.92539 | 2132 ft | 189 kts | 173° |
| 2026-04-21 23:56 | 28.06603 | -81.92602 | 2550 ft | 176 kts | 167° |
| 2026-04-21 23:56 | 28.05374 | -81.92759 | 2729 ft | 173 kts | 175° |
| 2026-04-21 23:56 | 28.04309 | -81.92394 | 2946 ft | 157 kts | 140° |
| 2026-04-21 23:57 | 28.03256 | -81.91823 | 2889 ft | 189 kts | 160° |
| 2026-04-21 23:57 | 28.01872 | -81.92006 | 2765 ft | 207 kts | 188° |
| 2026-04-21 23:57 | 28.00446 | -81.92448 | 2475 ft | 222 kts | 193° |
| 2026-04-21 23:57 | 27.98954 | -81.92991 | 2247 ft | 221 kts | 190° |
| 2026-04-21 23:58 | 27.97568 | -81.93670 | 2179 ft | 218 kts | 209° |
| 2026-04-21 23:58 | 27.96470 | -81.94817 | 2067 ft | 219 kts | 229° |
| 2026-04-21 23:58 | 27.95547 | -81.96158 | 2007 ft | 210 kts | 226° |
| 2026-04-21 23:58 | 27.94802 | -81.97575 | 1932 ft | 217 kts | 248° |
| 2026-04-21 23:59 | 27.94626 | -81.99290 | 1843 ft | 220 kts | 277° |
| 2026-04-21 23:59 | 27.94971 | -82.00954 | 1871 ft | 214 kts | 289° |
| 2026-04-21 23:59 | 27.95520 | -82.02525 | 1782 ft | 214 kts | 303° |
| 2026-04-21 23:59 | 27.96145 | -82.03988 | 1964 ft | 203 kts | 297° |
| 2026-04-22 00:00 | 27.96567 | -82.05535 | 1969 ft | 206 kts | 282° |
| 2026-04-22 00:00 | 27.96806 | -82.07148 | 1922 ft | 205 kts | 279° |
| 2026-04-22 00:00 | 27.96930 | -82.08686 | 2033 ft | 192 kts | 276° |
| 2026-04-22 00:00 | 27.97267 | -82.10180 | 1879 ft | 192 kts | 307° |
| 2026-04-22 00:01 | 27.98206 | -82.11098 | 1923 ft | 174 kts | 342° |
| 2026-04-22 00:01 | 27.99325 | -82.11229 | 1773 ft | 152 kts | 17° |
| 2026-04-22 00:01 | 28.00229 | -82.10796 | 1464 ft | 132 kts | 52° |
| 2026-04-22 00:01 | 28.00551 | -82.09911 | 1343 ft | 112 kts | 89° |
| 2026-04-22 00:02 | 28.00413 | -82.09100 | 1355 ft | 108 kts | 118° |
| 2026-04-22 00:02 | 27.99786 | -82.08568 | 1294 ft | 115 kts | 138° |
| 2026-04-22 00:02 | 27.99147 | -82.08038 | 1258 ft | 110 kts | 127° |
| 2026-04-22 00:02 | 27.98834 | -82.07274 | 1143 ft | 109 kts | 92° |
| 2026-04-22 00:03 | 27.98839 | -82.06424 | 1152 ft | 92 kts | 87° |
| 2026-04-22 00:03 | 27.98871 | -82.05711 | 979 ft | 87 kts | 89° |
| 2026-04-22 00:03 | 27.98890 | -82.05081 | 780 ft | 77 kts | 86° |
| 2026-04-22 00:03 | 27.98913 | -82.04472 | 574 ft | 79 kts | 88° |
| 2026-04-22 00:04 | 27.98916 | -82.03838 | 370 ft | 82 kts | 90° |
| 2026-04-22 00:04 | 27.98924 | -82.03198 | 158 ft | 76 kts | 90° |
| 2026-04-22 00:04 | 27.98926 | -82.02683 | 124 ft | 55 kts | 95° |
| 2026-04-22 00:04 | 27.98934 | -82.02277 | 127 ft | 57 kts | 84° |
| 2026-04-22 00:05 | 27.98935 | -82.01803 | 132 ft | 57 kts | 91° |
| 2026-04-22 00:05 | 27.98933 | -82.01400 | 133 ft | 45 kts | 91° |
| 2026-04-22 00:05 | 27.98931 | -82.01073 | 135 ft | 40 kts | 88° |
| 2026-04-22 00:05 | 27.98922 | -82.00809 | 135 ft | 16 kts | 115° |
| 2026-04-22 00:06 | 27.98984 | -82.00768 | 135 ft | 15 kts | 348° |
| 2026-04-22 00:06 | 27.99011 | -82.00756 | 135 ft | 0 kts | 353° |
| 2026-04-22 00:06 | 27.99019 | -82.00751 | 136 ft | 11 kts | 14° |
| 2026-04-22 00:06 | 27.99034 | -82.00827 | 136 ft | 8 kts | 267° |
| 2026-04-22 00:07 | 27.99042 | -82.00874 | 135 ft | 8 kts | 254° |
| 2026-04-22 00:07 | 27.99052 | -82.00958 | 135 ft | 13 kts | 265° |